createdAt,value
2022-09-25T00:00:59.053Z,82.40
2022-09-25T00:03:27.279Z,83.29
2022-09-25T00:06:00.110Z,84.07
2022-09-25T00:08:26.608Z,84.88
2022-09-25T00:10:53.057Z,85.35
2022-09-25T00:13:20.490Z,85.53
2022-09-25T00:15:56.793Z,85.91
2022-09-25T00:18:42.360Z,86.69
2022-09-25T00:21:11.576Z,86.65
2022-09-25T00:23:38.269Z,87.09
2022-09-25T00:26:06.014Z,87.41
2022-09-25T00:28:32.706Z,87.11
2022-09-25T00:30:59.961Z,86.82
2022-09-25T00:33:26.617Z,87.16
2022-09-25T00:35:53.137Z,87.10
2022-09-25T00:38:19.578Z,87.32
2022-09-25T00:40:46.173Z,87.85
2022-09-25T00:43:33.211Z,87.95
2022-09-25T00:46:00.612Z,87.91
2022-09-25T00:48:27.505Z,88.15
2022-09-25T00:50:56.705Z,88.59
2022-09-25T00:53:32.350Z,88.79
2022-09-25T00:56:00.218Z,88.19
2022-09-25T00:58:27.878Z,89.33
2022-09-25T01:00:54.421Z,89.64
2022-09-25T01:03:21.716Z,89.50
2022-09-25T01:05:49.440Z,89.95
2022-09-25T01:08:19.154Z,90.19
2022-09-25T01:10:45.666Z,90.55
2022-09-25T01:13:13.409Z,90.85
2022-09-25T01:15:39.841Z,90.35
2022-09-25T01:18:06.245Z,91.45
2022-09-25T01:20:51.163Z,89.10
2022-09-25T01:23:25.384Z,90.37
2022-09-25T01:26:04.322Z,91.19
2022-09-25T01:28:36.653Z,92.56
2022-09-25T01:31:07.111Z,93.00
2022-09-25T01:33:55.262Z,94.06
2022-09-25T01:36:25.903Z,93.84
2022-09-25T01:39:12.619Z,95.39
2022-09-25T01:41:47.228Z,94.42
2022-09-25T01:44:33.632Z,95.02
2022-09-25T01:47:03.516Z,95.61
2022-09-25T01:49:33.014Z,95.37
2022-09-25T01:52:01.772Z,95.76
2022-09-25T01:54:30.934Z,96.24
2022-09-25T01:57:05.567Z,96.77
2022-09-25T01:59:51.643Z,97.84
2022-09-25T02:02:21.274Z,98.58
2022-09-25T02:04:56.303Z,98.95
2022-09-25T02:07:26.965Z,98.73
2022-09-25T02:09:56.389Z,99.22
2022-09-25T02:12:34.381Z,99.88
2022-09-25T02:15:03.416Z,99.80
2022-09-25T02:17:52.615Z,100.00
2022-09-25T02:20:33.181Z,99.39
2022-09-25T02:23:06.961Z,99.69
2022-09-25T02:25:37.615Z,99.92
2022-09-25T02:28:04.226Z,100.00
2022-09-25T02:30:30.760Z,100.00
2022-09-25T02:32:58.173Z,100.00
2022-09-25T02:35:26.056Z,100.00
2022-09-25T02:37:54.523Z,100.00
2022-09-25T02:40:25.090Z,100.00
2022-09-25T02:42:59.952Z,100.00
2022-09-25T02:45:35.324Z,100.00
2022-09-25T02:48:12.924Z,100.00
2022-09-25T02:50:46.054Z,100.00
2022-09-25T02:53:12.470Z,100.00
2022-09-25T02:55:45.936Z,99.83
2022-09-25T02:58:30.854Z,99.77
2022-09-25T03:00:57.583Z,99.85
2022-09-25T03:03:26.003Z,98.84
2022-09-25T03:05:54.813Z,98.38
2022-09-25T03:08:37.891Z,98.83
2022-09-25T03:11:05.694Z,97.85
2022-09-25T03:13:34.774Z,98.49
2022-09-25T03:16:21.044Z,98.44
2022-09-25T03:18:48.044Z,99.04
2022-09-25T03:21:14.549Z,98.26
2022-09-25T03:23:41.087Z,99.06
2022-09-25T03:26:07.834Z,98.54
2022-09-25T03:28:34.676Z,98.54
2022-09-25T03:31:08.372Z,98.98
2022-09-25T03:33:36.247Z,99.74
2022-09-25T03:36:04.314Z,99.16
2022-09-25T03:38:30.777Z,99.31
2022-09-25T03:40:57.261Z,99.79
2022-09-25T03:43:24.043Z,100.00
2022-09-25T03:45:50.550Z,99.52
2022-09-25T03:48:17.814Z,98.64
2022-09-25T03:50:44.633Z,97.43
2022-09-25T03:53:11.087Z,96.76
2022-09-25T03:55:37.585Z,95.98
2022-09-25T03:58:04.031Z,96.21
2022-09-25T04:00:30.461Z,95.95
2022-09-25T04:02:58.886Z,95.53
2022-09-25T04:05:25.402Z,96.02
2022-09-25T04:07:52.862Z,96.64
2022-09-25T04:10:19.300Z,96.39
2022-09-25T04:12:45.759Z,97.19
2022-09-25T04:15:12.161Z,96.27
2022-09-25T04:17:38.612Z,95.39
2022-09-25T04:20:05.211Z,94.96
2022-09-25T04:22:31.645Z,94.96
2022-09-25T04:24:59.811Z,93.25
2022-09-25T04:27:27.300Z,92.70
2022-09-25T04:29:53.751Z,92.00
2022-09-25T04:32:38.934Z,91.47
2022-09-25T04:35:05.450Z,90.79
2022-09-25T04:37:31.886Z,90.77
2022-09-25T04:39:59.819Z,90.71
2022-09-25T04:42:26.326Z,90.66
2022-09-25T04:44:53.646Z,90.69
2022-09-25T04:47:23.678Z,90.86
2022-09-25T04:49:51.199Z,90.38
2022-09-25T04:52:18.720Z,90.31
2022-09-25T04:54:45.185Z,90.66
2022-09-25T04:57:32.718Z,90.60
2022-09-25T05:00:02.776Z,90.53
2022-09-25T05:02:29.323Z,90.98
2022-09-25T05:04:55.824Z,90.74
2022-09-25T05:07:22.395Z,90.88
2022-09-25T05:09:48.860Z,91.56
2022-09-25T05:12:15.824Z,91.41
2022-09-25T05:14:42.698Z,91.44
2022-09-25T05:17:11.367Z,91.15
2022-09-25T05:19:38.593Z,91.76
2022-09-25T05:22:05.357Z,92.08
2022-09-25T05:24:31.898Z,93.02
2022-09-25T05:26:58.932Z,93.04
2022-09-25T05:29:25.497Z,92.69
2022-09-25T05:31:51.982Z,92.71
2022-09-25T05:34:18.482Z,92.39
2022-09-25T05:36:44.949Z,92.09
2022-09-25T05:39:14.354Z,91.93
2022-09-25T05:41:41.512Z,91.90
2022-09-25T05:44:09.888Z,91.49
2022-09-25T05:46:36.987Z,92.00
2022-09-25T05:49:04.089Z,92.13
2022-09-25T05:51:30.901Z,91.95
2022-09-25T05:53:57.549Z,91.50
2022-09-25T05:56:24.859Z,92.43
2022-09-25T05:58:52.247Z,91.25
2022-09-25T06:01:18.971Z,91.29
2022-09-25T06:03:45.648Z,90.47
2022-09-25T06:06:12.476Z,90.83
2022-09-25T06:08:39.258Z,90.29
2022-09-25T06:11:06.192Z,91.08
2022-09-25T06:13:35.781Z,90.79
2022-09-25T06:16:05.699Z,91.15
2022-09-25T06:18:34.064Z,90.57
2022-09-25T06:21:03.845Z,90.53
2022-09-25T06:23:31.583Z,89.79
2022-09-25T06:26:02.002Z,88.82
2022-09-25T06:28:30.990Z,87.92
2022-09-25T06:31:02.279Z,86.84
2022-09-25T06:33:29.244Z,84.98
2022-09-25T06:35:55.705Z,82.68
2022-09-25T06:38:22.183Z,80.57
2022-09-25T06:40:48.688Z,79.36
2022-09-25T06:43:16.324Z,76.61
2022-09-25T06:45:44.672Z,75.76
2022-09-25T06:48:23.407Z,72.85
2022-09-25T06:50:53.883Z,71.22
2022-09-25T06:53:21.275Z,71.79
2022-09-25T06:55:48.288Z,70.82
2022-09-25T06:58:16.164Z,71.51
2022-09-25T07:00:46.180Z,71.49
2022-09-25T07:03:31.079Z,71.61
2022-09-25T07:05:59.521Z,70.72
2022-09-25T07:08:26.216Z,71.22
2022-09-25T07:10:54.080Z,69.75
2022-09-25T07:13:24.621Z,67.43
2022-09-25T07:15:54.993Z,68.08
2022-09-25T07:18:22.107Z,65.92
2022-09-25T07:20:49.338Z,65.12
2022-09-25T07:23:17.043Z,64.13
2022-09-25T07:25:46.582Z,62.98
2022-09-25T07:28:14.527Z,63.04
2022-09-25T07:30:41.215Z,62.83
2022-09-25T07:33:07.998Z,60.13
2022-09-25T07:35:34.995Z,61.47
2022-09-25T07:38:01.500Z,58.18
2022-09-25T07:40:28.926Z,59.28
2022-09-25T07:43:00.170Z,56.15
2022-09-25T07:45:26.822Z,55.38
2022-09-25T07:47:57.029Z,54.45
2022-09-25T07:50:23.769Z,54.81
2022-09-25T07:52:50.326Z,54.77
2022-09-25T07:55:18.332Z,52.21
2022-09-25T07:57:44.924Z,53.46
2022-09-25T08:00:11.816Z,53.89
2022-09-25T08:02:38.574Z,52.36
2022-09-25T08:05:05.276Z,53.81
2022-09-25T08:07:31.724Z,54.03
2022-09-25T08:09:58.171Z,53.74
2022-09-25T08:12:25.276Z,51.90
2022-09-25T08:14:52.156Z,51.64
2022-09-25T08:17:19.657Z,51.72
2022-09-25T08:19:46.288Z,50.96
2022-09-25T08:22:12.738Z,51.18
2022-09-25T08:24:39.423Z,49.75
2022-09-25T08:27:07.708Z,49.85
2022-09-25T08:29:34.354Z,50.40
2022-09-25T08:32:01.608Z,48.13
2022-09-25T08:34:40.561Z,47.85
2022-09-25T08:37:08.375Z,49.25
2022-09-25T08:39:34.800Z,48.92
2022-09-25T08:42:02.185Z,50.90
2022-09-25T08:44:30.934Z,49.79
2022-09-25T08:47:19.886Z,48.69
2022-09-25T08:49:49.235Z,47.66
2022-09-25T08:52:17.572Z,47.73
2022-09-25T08:54:45.736Z,49.54
2022-09-25T08:57:27.553Z,47.40
2022-09-25T09:00:01.400Z,48.93
2022-09-25T09:02:47.780Z,47.16
2022-09-25T09:05:17.490Z,44.22
2022-09-25T09:07:46.755Z,44.44
2022-09-25T09:10:19.134Z,42.57
2022-09-25T09:12:47.967Z,40.76
2022-09-25T09:15:23.422Z,41.33
2022-09-25T09:17:49.871Z,41.21
2022-09-25T09:20:18.691Z,38.99
2022-09-25T09:22:47.648Z,37.89
2022-09-25T09:25:38.535Z,38.46
2022-09-25T09:28:17.029Z,38.57
2022-09-25T09:30:43.507Z,40.24
2022-09-25T09:33:19.143Z,38.46
2022-09-25T09:36:05.357Z,36.05
2022-09-25T09:38:42.071Z,38.30
2022-09-25T09:41:08.545Z,37.71
2022-09-25T09:43:37.467Z,36.50
2022-09-25T09:46:03.956Z,35.59
2022-09-25T09:48:33.476Z,34.35
2022-09-25T09:51:06.259Z,34.46
2022-09-25T09:53:42.838Z,34.15
2022-09-25T09:56:12.342Z,34.60
2022-09-25T09:58:50.785Z,35.89
2022-09-25T10:01:40.119Z,34.69
2022-09-25T10:04:15.045Z,35.53
2022-09-25T10:06:53.953Z,34.21
2022-09-25T10:09:20.585Z,34.99
2022-09-25T10:11:49.561Z,36.07
2022-09-25T10:14:21.083Z,36.40
2022-09-25T10:16:52.568Z,37.83
2022-09-25T10:19:20.921Z,36.81
2022-09-25T10:21:50.006Z,35.71
2022-09-25T10:24:35.827Z,36.22
2022-09-25T10:27:22.481Z,35.58
2022-09-25T10:30:00.925Z,36.73
2022-09-25T10:32:27.432Z,35.04
2022-09-25T10:34:53.932Z,36.40
2022-09-25T10:37:21.730Z,37.01
2022-09-25T10:40:22.514Z,36.88
2022-09-25T10:42:49.050Z,37.53
2022-09-25T10:45:22.502Z,38.47
2022-09-25T10:48:08.699Z,38.04
2022-09-25T10:50:37.037Z,39.19
2022-09-25T10:53:04.947Z,37.75
2022-09-25T10:55:32.720Z,39.07
2022-09-25T10:57:59.160Z,39.08
2022-09-25T11:00:26.820Z,38.63
2022-09-25T11:03:01.991Z,38.76
2022-09-25T11:05:35.921Z,38.76
2022-09-25T11:08:06.822Z,39.29
2022-09-25T11:10:53.127Z,39.21
2022-09-25T11:13:27.989Z,39.36
2022-09-25T11:15:59.423Z,39.05
2022-09-25T11:18:31.861Z,39.90
2022-09-25T11:21:02.979Z,40.27
2022-09-25T11:23:47.894Z,40.01
2022-09-25T11:26:20.645Z,40.47
2022-09-25T11:28:52.202Z,40.87
2022-09-25T11:31:37.827Z,40.94
2022-09-25T11:34:14.364Z,41.01
2022-09-25T11:36:59.542Z,41.50
2022-09-25T11:39:52.406Z,40.55
2022-09-25T11:42:25.389Z,40.49
2022-09-25T11:44:57.955Z,40.72
2022-09-25T11:47:29.127Z,40.17
2022-09-25T11:50:12.104Z,40.64
2022-09-25T11:52:42.992Z,39.86
2022-09-25T11:55:12.466Z,40.63
2022-09-25T11:57:42.491Z,40.79
2022-09-25T12:00:21.105Z,41.13
2022-09-25T12:03:07.423Z,42.00
2022-09-25T12:05:52.745Z,42.24
2022-09-25T12:08:24.365Z,42.56
2022-09-25T12:11:03.809Z,43.37
2022-09-25T12:13:31.907Z,41.89
2022-09-25T12:15:59.329Z,41.63
2022-09-25T12:18:34.258Z,41.02
2022-09-25T12:21:09.931Z,40.23
2022-09-25T12:23:47.809Z,39.53
2022-09-25T12:26:32.831Z,39.45
2022-09-25T12:29:06.158Z,40.55
2022-09-25T12:31:32.666Z,41.13
2022-09-25T12:34:08.378Z,41.97
2022-09-25T12:36:38.959Z,41.85
2022-09-25T12:39:09.042Z,42.48
2022-09-25T12:41:42.506Z,42.19
2022-09-25T12:44:11.757Z,42.87
2022-09-25T12:46:44.599Z,42.00
2022-09-25T12:49:20.439Z,41.79
2022-09-25T12:51:48.252Z,42.47
2022-09-25T12:54:17.701Z,43.22
2022-09-25T12:56:58.183Z,43.24
2022-09-25T12:59:30.178Z,44.19
2022-09-25T13:02:11.984Z,44.09
2022-09-25T13:04:47.477Z,44.80
2022-09-25T13:07:19.106Z,44.84
2022-09-25T13:09:47.195Z,45.51
2022-09-25T13:12:17.009Z,46.25
2022-09-25T13:14:52.243Z,47.14
2022-09-25T13:17:18.809Z,48.02
2022-09-25T13:19:45.244Z,48.48
2022-09-25T13:22:20.813Z,48.96
2022-09-25T13:24:52.599Z,49.34
2022-09-25T13:27:22.525Z,48.96
2022-09-25T13:29:54.452Z,48.57
2022-09-25T13:32:25.322Z,49.40
2022-09-25T13:34:54.133Z,49.79
2022-09-25T13:37:24.023Z,50.79
2022-09-25T13:40:09.269Z,50.86
2022-09-25T13:42:45.513Z,51.45
2022-09-25T13:45:27.821Z,51.70
2022-09-25T13:47:54.771Z,52.26
2022-09-25T13:50:34.773Z,53.31
2022-09-25T13:53:20.729Z,53.32
2022-09-25T13:55:49.965Z,53.88
2022-09-25T13:58:24.016Z,54.38
2022-09-25T14:00:55.402Z,54.57
2022-09-25T14:03:47.172Z,55.06
2022-09-25T14:06:19.535Z,55.54
2022-09-25T14:08:47.122Z,55.90
2022-09-25T14:11:19.248Z,55.86
2022-09-25T14:13:48.266Z,56.21
2022-09-25T14:16:24.770Z,56.27
2022-09-25T14:18:55.184Z,56.26
2022-09-25T14:21:22.756Z,55.95
2022-09-25T14:23:53.856Z,56.29
2022-09-25T14:26:27.845Z,55.85
2022-09-25T14:28:55.786Z,55.33
2022-09-25T14:31:38.666Z,54.42
2022-09-25T14:34:17.507Z,55.09
2022-09-25T14:36:43.923Z,55.83
2022-09-25T14:39:19.341Z,56.58
2022-09-25T14:42:03.144Z,56.24
2022-09-25T14:44:32.592Z,56.30
2022-09-25T14:46:59.186Z,55.89
2022-09-25T14:49:30.898Z,56.34
2022-09-25T14:52:00.408Z,56.21
2022-09-25T14:54:31.085Z,56.16
2022-09-25T14:56:58.510Z,56.71
2022-09-25T14:59:33.864Z,57.12
2022-09-25T15:02:02.941Z,57.54
2022-09-25T15:04:33.706Z,57.76
2022-09-25T15:07:02.183Z,58.06
2022-09-25T15:09:37.153Z,58.70
2022-09-25T15:12:15.606Z,58.99
2022-09-25T15:14:56.889Z,58.91
2022-09-25T15:17:23.729Z,59.36
2022-09-25T15:19:50.227Z,59.40
2022-09-25T15:22:19.420Z,59.68
2022-09-25T15:24:48.358Z,59.88
2022-09-25T15:27:17.092Z,60.49
2022-09-25T15:29:45.231Z,61.34
2022-09-25T15:32:23.168Z,61.18
2022-09-25T15:34:49.614Z,61.60
2022-09-25T15:37:26.296Z,62.03
2022-09-25T15:39:53.199Z,62.78
2022-09-25T15:42:20.051Z,63.04
2022-09-25T15:44:47.078Z,63.16
2022-09-25T15:47:39.525Z,63.84
2022-09-25T15:50:14.138Z,64.38
2022-09-25T15:52:40.618Z,64.08
2022-09-25T15:55:11.098Z,64.24
2022-09-25T15:57:37.571Z,64.66
2022-09-25T16:00:27.940Z,65.01
2022-09-25T16:03:22.831Z,65.07
2022-09-25T16:05:49.846Z,65.67
2022-09-25T16:08:25.654Z,66.19
2022-09-25T16:11:10.635Z,65.84
2022-09-25T16:13:39.844Z,65.99
2022-09-25T16:16:16.614Z,66.20
2022-09-25T16:18:43.506Z,66.49
2022-09-25T16:21:15.597Z,67.03
2022-09-25T16:23:43.093Z,66.92
2022-09-25T16:26:22.289Z,67.77
2022-09-25T16:29:09.024Z,68.46
2022-09-25T16:31:37.168Z,69.22
2022-09-25T16:34:04.710Z,69.66
2022-09-25T16:36:42.917Z,70.48
2022-09-25T16:39:12.939Z,70.68
2022-09-25T16:41:40.665Z,71.35
2022-09-25T16:44:18.980Z,72.20
2022-09-25T16:46:52.222Z,72.09
2022-09-25T16:49:19.999Z,72.60
2022-09-25T16:51:48.210Z,73.04
2022-09-25T16:54:15.929Z,73.18
2022-09-25T16:56:43.392Z,73.25
2022-09-25T16:59:16.374Z,72.76
2022-09-25T17:01:43.207Z,71.91
2022-09-25T17:04:11.317Z,71.61
2022-09-25T17:06:40.835Z,73.54
2022-09-25T17:09:12.292Z,74.14
2022-09-25T17:11:39.922Z,74.34
2022-09-25T17:14:09.599Z,74.08
2022-09-25T17:16:36.195Z,74.02
2022-09-25T17:19:02.695Z,73.93
2022-09-25T17:21:29.263Z,74.06
2022-09-25T17:23:55.681Z,74.39
2022-09-25T17:26:23.546Z,74.32
2022-09-25T17:28:50.793Z,72.97
2022-09-25T17:31:20.282Z,73.50
2022-09-25T17:33:49.937Z,72.73
2022-09-25T17:36:16.740Z,73.13
2022-09-25T17:38:43.202Z,73.64
2022-09-25T17:41:20.876Z,74.05
2022-09-25T17:43:47.947Z,74.43
2022-09-25T17:46:19.211Z,74.52
2022-09-25T17:48:50.191Z,74.31
2022-09-25T17:51:23.932Z,74.90
2022-09-25T17:53:50.643Z,75.10
2022-09-25T17:56:17.122Z,75.14
2022-09-25T17:58:44.562Z,75.74
2022-09-25T18:01:18.155Z,75.84
2022-09-25T18:03:47.744Z,75.65
2022-09-25T18:06:14.176Z,75.52
2022-09-25T18:08:41.405Z,75.50
2022-09-25T18:11:09.796Z,75.51
2022-09-25T18:13:41.366Z,75.69
2022-09-25T18:16:16.517Z,76.39
2022-09-25T18:19:02.423Z,77.76
2022-09-25T18:21:47.308Z,78.27
2022-09-25T18:24:13.927Z,79.33
2022-09-25T18:26:41.784Z,79.60
2022-09-25T18:29:08.369Z,80.11
2022-09-25T18:31:34.908Z,80.13
2022-09-25T18:34:01.421Z,81.42
2022-09-25T18:36:27.925Z,81.10
2022-09-25T18:38:54.617Z,80.59
2022-09-25T18:41:21.081Z,80.53
2022-09-25T18:43:47.492Z,80.71
2022-09-25T18:46:14.057Z,80.95
2022-09-25T18:48:44.828Z,80.74
2022-09-25T18:51:12.388Z,80.79
2022-09-25T18:53:38.837Z,81.26
2022-09-25T18:56:05.317Z,81.49
2022-09-25T18:58:31.742Z,81.89
2022-09-25T19:00:58.257Z,81.87
2022-09-25T19:03:24.688Z,82.13
2022-09-25T19:05:57.851Z,81.93
2022-09-25T19:08:24.345Z,82.31
2022-09-25T19:10:50.770Z,82.13
2022-09-25T19:13:18.123Z,82.32
2022-09-25T19:15:44.733Z,82.37
2022-09-25T19:18:11.257Z,82.44
2022-09-25T19:20:37.734Z,82.35
2022-09-25T19:23:05.142Z,82.69
2022-09-25T19:25:31.570Z,82.35
2022-09-25T19:27:57.997Z,82.57
2022-09-25T19:30:24.719Z,82.50
2022-09-25T19:32:51.200Z,82.93
2022-09-25T19:35:17.613Z,82.81
2022-09-25T19:37:44.024Z,82.99
2022-09-25T19:40:29.430Z,82.85
2022-09-25T19:42:55.978Z,82.67
2022-09-25T19:45:22.688Z,82.64
2022-09-25T19:47:49.190Z,82.83
2022-09-25T19:50:15.732Z,82.75
2022-09-25T19:52:42.198Z,83.08
2022-09-25T19:55:08.761Z,82.88
2022-09-25T19:57:35.213Z,83.04
2022-09-25T20:00:01.733Z,82.78
2022-09-25T20:02:28.247Z,83.01
2022-09-25T20:04:54.810Z,83.29
2022-09-25T20:07:21.258Z,83.09
2022-09-25T20:09:47.814Z,82.99
2022-09-25T20:12:14.298Z,83.12
2022-09-25T20:14:43.324Z,83.07
2022-09-25T20:17:10.408Z,83.18
2022-09-25T20:19:37.797Z,83.39
2022-09-25T20:22:04.264Z,83.48
2022-09-25T20:24:30.753Z,83.22
2022-09-25T20:26:57.390Z,83.59
2022-09-25T20:29:23.921Z,84.00
2022-09-25T20:31:50.337Z,83.93
2022-09-25T20:34:18.237Z,84.29
2022-09-25T20:36:46.611Z,84.52
2022-09-25T20:39:19.779Z,84.53
2022-09-25T20:41:47.901Z,84.65
2022-09-25T20:44:14.379Z,84.80
2022-09-25T20:46:42.120Z,84.36
2022-09-25T20:49:10.143Z,84.59
2022-09-25T20:51:36.914Z,84.65
2022-09-25T20:54:07.167Z,84.52
2022-09-25T20:56:34.767Z,84.37
2022-09-25T20:59:01.644Z,84.31
2022-09-25T21:01:30.048Z,84.72
2022-09-25T21:03:58.772Z,84.76
2022-09-25T21:06:27.752Z,85.41
2022-09-25T21:08:55.508Z,84.88
2022-09-25T21:11:22.722Z,85.04
2022-09-25T21:13:52.929Z,85.27
2022-09-25T21:16:20.685Z,85.24
2022-09-25T21:18:51.415Z,85.39
2022-09-25T21:21:18.238Z,85.64
2022-09-25T21:23:48.079Z,85.61
2022-09-25T21:26:15.103Z,85.91
2022-09-25T21:28:43.217Z,85.50
2022-09-25T21:31:11.237Z,85.93
2022-09-25T21:33:37.756Z,86.02
2022-09-25T21:36:04.657Z,86.05
2022-09-25T21:38:31.221Z,86.12
2022-09-25T21:41:04.602Z,86.13
2022-09-25T21:43:32.011Z,86.03
2022-09-25T21:45:59.724Z,86.06
2022-09-25T21:48:26.720Z,85.95
2022-09-25T21:50:58.200Z,86.15
2022-09-25T21:53:25.306Z,86.24
2022-09-25T21:56:05.545Z,85.99
2022-09-25T21:58:32.926Z,86.16
2022-09-25T22:01:10.979Z,86.03
2022-09-25T22:03:38.811Z,86.05
2022-09-25T22:06:06.977Z,86.40
2022-09-25T22:08:37.380Z,86.24
2022-09-25T22:11:04.822Z,86.43
2022-09-25T22:13:32.832Z,86.41
2022-09-25T22:16:03.180Z,86.69
2022-09-25T22:18:29.696Z,86.53
2022-09-25T22:20:56.123Z,86.80
2022-09-25T22:23:23.901Z,86.78
2022-09-25T22:25:52.701Z,87.34
2022-09-25T22:28:19.530Z,87.34
2022-09-25T22:30:46.081Z,87.20
2022-09-25T22:33:12.742Z,87.55
2022-09-25T22:35:39.180Z,87.40
2022-09-25T22:38:05.720Z,87.13
2022-09-25T22:40:32.182Z,86.10
2022-09-25T22:43:02.114Z,85.68
2022-09-25T22:45:29.305Z,84.78
2022-09-25T22:47:57.574Z,83.70
2022-09-25T22:50:24.056Z,82.81
2022-09-25T22:52:51.773Z,81.95
2022-09-25T22:55:19.695Z,81.55
2022-09-25T22:57:46.143Z,81.36
2022-09-25T23:00:14.441Z,81.17
2022-09-25T23:02:40.876Z,81.15
2022-09-25T23:05:08.118Z,81.01
2022-09-25T23:07:34.593Z,80.90
2022-09-25T23:10:01.013Z,80.59
2022-09-25T23:12:30.608Z,80.38
2022-09-25T23:14:57.344Z,80.35
2022-09-25T23:17:23.877Z,80.34
2022-09-25T23:19:50.313Z,79.95
2022-09-25T23:22:16.798Z,79.89
2022-09-25T23:24:43.390Z,80.29
2022-09-25T23:27:09.917Z,80.17
2022-09-25T23:29:36.598Z,80.48
2022-09-25T23:32:04.730Z,80.47
2022-09-25T23:34:31.169Z,80.29
2022-09-25T23:36:57.678Z,80.45
2022-09-25T23:39:24.846Z,80.41
2022-09-25T23:41:51.301Z,80.62
2022-09-25T23:44:17.909Z,80.42
2022-09-25T23:46:44.841Z,80.60
2022-09-25T23:49:11.839Z,80.84
2022-09-25T23:51:38.759Z,80.82
2022-09-25T23:54:05.282Z,81.34
2022-09-25T23:56:33.466Z,81.56
2022-09-25T23:59:01.313Z,81.62
